Tiempo atmosférico en la estación meteorológica de Puerto De Leitariegos, Asturias (1550 m.)



Fecha
DESCASC
Temp. máxima en grados centígrados (hora)
DESCASC
Temp. mínima en grados centígrados (hora)
DESCASC
Temp. media en grados centígrados
DESCASC
Racha de viento máxima en m/sg (hora)
DESCASC
Velocidad máxima media en intervalos de 10 minutos(hora)
DESCASC
Precipitaciones diarias en mm
DESCASC
Precipitaciones de 00:00 a 06:00 en mm
DESCASC
Precipitaciones de 06:00 a 12:00 en mm
DESCASC
Precipitaciones de 12:00 a 18:00 en mm
DESCASC
Precipitaciones de 18:00 a 24:00 en mm
DESCASC
16-06-2019 18.6 (16:00) 4.2 (04:30) 11.4 10 (13:20) 6.94 (18:30) 0 0 0 0 0
15-06-2019 14.3 (16:50) 3.1 (04:40) 8.7 9.72 (19:00) 6.11 (18:50) 1.4 1.4 0 0 0
14-06-2019 11.8 (12:40) 0 (07:00) 5.9 10 (12:30) 6.67 (20:10) 0 0 0 0 0
13-06-2019 9.7 (14:50) 0.8 (00:00) 5.2 10.28 (16:40) 6.67 (16:40) 0 0 0 0 0
12-06-2019 9.4 (16:30) -0.1 (00:00) 4.6 12.22 (01:50) 7.78 (02:00) 1.8 1.2 0.6 0 0
11-06-2019 4.9 (15:30) 0.2 (00:00) 2.6 15 (07:40) 8.06 (07:40) 13 4 5 3.8 0.2
10-06-2019 10.4 (14:40) 0.2 (00:00) 5.3 8.61 (23:40) 5.83 (23:40) 1.6 0 0 0 1.6
09-06-2019 10.6 (14:10) 1.2 (00:00) 5.9 10.28 (18:20) 7.22 (17:50) 0 0 0 0 0
08-06-2019 12 (15:00) -1 (-00:0) 5.5 9.17 (17:40) 6.39 (18:10) 0 0 0 0 0
07-06-2019 5.9 (13:20) 0.3 (00:00) 3.1 18.33 (01:10) 10 (00:50) 8.6 3 2.6 2 1
06-06-2019 7.4 (13:30) 0.3 (00:00) 3.9 19.17 (19:30) 10.83 (13:30) 16.8 0.2 0 6.6 10
05-06-2019 6.5 (15:40) 0.7 (00:00) 3.6 12.22 (14:30) 6.94 (03:30) 12.8 2.4 3.8 4.2 2.4
04-06-2019 11.8 (00:20) 3.7 (00:00) 7.8 9.44 (13:30) 5.83 (21:50) 7.4 0 0.2 5.8 1.4
03-06-2019 19.6 (17:00) 9.7 (00:00) 14.7 14.44 (15:40) 5.56 (15:30) 0 0 0 0 0
02-06-2019 20.2 (13:30) 10.1 (00:00) 15.2 13.89 (14:20) 5.56 (14:40) 0 0 0 0 0
01-06-2019 23.8 (15:30) 11.8 (00:00) 17.8 13.89 (15:30) 5.28 (17:20) 0 0 0 0 0
31-05-2019 23 (15:40) 9.8 (00:00) 16.4 10 (17:40) 5 (18:00) 0 0 0 0 0
30-05-2019 21.1 (17:20) 7.8 (00:00) 14.5 11.67 (18:30) 6.11 (18:20) 0 0 0 0 0
29-05-2019 17.4 (17:40) 2.1 (00:00) 9.7 7.78 (17:30) 5 (17:10) 0 0 0 0 0
28-05-2019 10.6 (16:50) 1 (00:00) 5.8 12.78 (17:30) 7.78 (17:30) 0 0 0 0 0
27-05-2019 12.6 (16:30) 3.4 (00:00) 8 10.83 (18:20) 6.67 (18:20) 0.6 0 0.4 0.2 0
26-05-2019 16.2 (14:10) 6.3 (00:00) 11.3 11.39 (17:40) 7.22 (15:50) 0 0 0 0 0
25-05-2019 12.9 (16:50) 1.4 (00:00) 7.1 10.28 (16:00) 6.94 (16:20) 0 0 0 0 0
24-05-2019 9.3 (17:00) 1 (00:00) 5.2 13.06 (17:50) 6.67 (02:30) 0 0 0 0 0
23-05-2019 13.5 (12:40) 4.8 (00:00) 9.2 11.67 (18:20) 7.78 (18:20) 0 0 0 0 0
22-05-2019 16.5 (16:40) 5 (00:00) 10.8 7.5 (16:20) 4.72 (16:10) 0 0 0 0 0
21-05-2019 13.4 (15:40) 1.8 (07:10) 7.6 10.83 (19:40) 6.67 (19:40) 0 0 0 0 0

Gráficas

Temp. máximas Temp. mínimas Temp. medias Precipitaciones Rachas de viento máximas Velocidades máximas media en intervalos de 10 minutos

Datos horarios

Fecha y hora oficial Temperatura (ºC) Velocidad del viento (km/h) Dirección del viento Racha (km/h) Dirección de racha Precipitación (mm) Presión (hPa) Tendencia (hPa) Humedad (%)
2019-06-19 23:00:00 9.2 5 Noroeste 12 Norte 0 849 0.6 93
2019-06-19 22:00:00 9.2 9 Noroeste 17 Noroeste 0 848.7 0.5 91
2019-06-19 21:00:00 10.1 12 Noroeste 20 Noroeste 0 848.5 0.4 87
2019-06-19 20:00:00 11.1 13 Noroeste 24 Noroeste 0 848.4 0.4 82
2019-06-19 19:00:00 12 15 Noroeste 25 Noroeste 0 848.2 0.4 79
2019-06-19 18:00:00 12.6 14 Noroeste 21 Noroeste 0 848.1 0.3 80
2019-06-19 17:00:00 12.8 12 Noroeste 22 Noroeste 0 848 0.4 80
2019-06-19 16:00:00 13.3 10 Sudeste 38 Este 0 847.8 0.7 73
2019-06-19 15:00:00 12.2 14 Sudeste 37 Este 0 847.8 0.8 74
2019-06-19 14:00:00 10.8 14 Sudeste 36 Sudeste 0 847.6 0.9 84
2019-06-19 13:00:00 11.6 15 Sudeste 35 Sudeste 0 847.1 0.6 77
2019-06-19 12:00:00 10.4 11 Sudeste 26 Sudeste 0 847 0.7 86
2019-06-19 11:00:00 9.8 7 Sudeste 14 Sudeste 0 846.7 0.9 87
2019-06-19 10:00:00 9.7 7 Sur 20 Sudeste 0 846.5 1.1 88
2019-06-19 09:00:00 9.1 4 Sudeste 30 Sudeste 0 846.3 0.8 88
2019-06-19 08:00:00 8.9 12 Sudeste 42 Sur 0 845.8 0.5 86
2019-06-19 07:00:00 9 21 Sudeste 48 Sur 0 845.4 0.2 86
2019-06-19 06:00:00 9.1 15 Sudeste 60 Sudeste 0 845.5 0.2 88
2019-06-19 05:00:00 9.4 22 Sudeste 55 Sudeste 0 845.3 0.1 84
2019-06-19 04:00:00 9.6 21 Sudeste 52 Sudeste 0 845.2 -0.2 83
2019-06-19 03:00:00 9.9 20 Sudeste 71 Sudeste 0 845.3 -0.2 84
2019-06-19 02:00:00 9.8 22 Sudeste 50 Sudeste 0.6 845.2 0 87
2019-06-19 01:00:00 10.3 12 Este 38 Sudeste 0 845.4 0.5 86
2019-06-19 00:00:00 10.3 10 Sudeste 62 Sudeste 0.4 845.5 0.6 87
2019-06-18 23:00:00 10.5 21 Sudeste 59 Sudeste 0.2 845.2 0.2 89
2019-06-18 22:00:00 10.5 28 Sudeste 62 Sudeste 1.4 844.9 0.3 89
2019-06-18 21:00:00 10.3 18 Sudeste 48 Sudoeste 3.2 844.9 -0.1 92
2019-06-18 20:00:00 10.5 18 Sudeste 37 Sudeste 1.6 845 0.5 90
2019-06-18 19:00:00 11.2 13 Sudeste 32 Sudeste 1.2 844.6 -0.3 87
2019-06-18 18:00:00 11.2 16 Sudeste 35 Sudeste 0.6 845 0.5 86
2019-06-18 17:00:00 12.5 18 Sudeste 40 Sudeste 0 844.5 0 74
2019-06-18 16:00:00 11.1 22 Sudeste 47 Sudeste 0 844.9 0 82
2019-06-18 15:00:00 12.2 22 Sudeste 42 Sudeste 0 844.5 -0.5 77
2019-06-18 14:00:00 12.4 24 Sudeste 38 Sudeste 0 844.5 0 76
2019-06-18 13:00:00 12.2 19 Sudeste 33 Sudeste 0.2 844.9 0.4 72
2019-06-18 12:00:00 12.9 13 Sur 38 Sudeste 0 845 0.7 65
2019-06-18 11:00:00 14.4 16 Sudeste 39 Sudeste 0 844.5 0.1 46
2019-06-18 10:00:00 13.6 14 Sudeste 36 Sudeste 0 844.5 -0.2 39
2019-06-18 09:00:00 14.1 18 Sudeste 32 Sudeste 0 844.3 -0.5 41
2019-06-18 08:00:00 8.9 9 Sudeste 16 Sudeste 0 844.4 -0.7 59
2019-06-18 07:00:00 8.7 5 Sudeste 11 Sur 0 844.7 -1 59
2019-06-18 06:00:00 8.7 4 Sudeste 10 Sur 0 844.8 -1.5 58
2019-06-18 05:00:00 8.9 5 Sudeste 9 Sur 0 845.1 -1.8 58
2019-06-18 04:00:00 9.2 4 Sur 12 Sur 0 845.7 -1.8 57
2019-06-18 03:00:00 9.5 11 Sudeste 19 Sudeste 0 846.3 -2.2 58
2019-06-18 02:00:00 9.9 14 Sudeste 22 Sur 0 846.9 -1.4 53
2019-06-18 01:00:00 10.6 13 Sur 27 Sudeste 0 847.5 -0.6 48
2019-06-18 00:00:00 12.1 8 Sur 22 Este 0 848.5 0.5 43
2019-06-17 23:00:00 12.1 4 Sudeste 22 Sudeste 0 848.3 0.2 41
2019-06-17 22:00:00 13.4 15 Sudeste 37 Sudeste 0 848.1 0.3 34
2019-06-17 21:00:00 14.3 13 Sudeste 30 Sudeste 0 848 -0.6 34
2019-06-17 20:00:00 15.9 7 Sur 29 Sur 0 848.1 -0.3 30
2019-06-17 19:00:00 16.5 12 Sudeste 29 Sur 0 847.8 -0.6 27
2019-06-17 18:00:00 16.4 17 Sur 41 Sudeste 0 848.6 0.2 28
2019-06-17 17:00:00 17.2 22 Sudeste 44 Sudeste 0 848.4 -0.1 34
2019-06-17 16:00:00 18.3 19 Sudeste 38 Sudeste 0 848.4 -0.2 33
2019-06-17 15:00:00 18.8 19 Sudeste 42 Sur 0 848.4 -0.1 35
2019-06-17 14:00:00 19.1 27 Sudeste 41 Sudeste 0 848.5 -0.2 37
2019-06-17 13:00:00 18.6 18 Sudeste 45 Sudeste 0 848.6 -0.4 36
2019-06-17 12:00:00 17.9 25 Sudeste 40 Sudeste 0 848.5 -0.8 37
2019-06-17 11:00:00 16.4 20 Sudeste 31 Sudeste 0 848.7 -0.7 51
2019-06-17 10:00:00 14.7 15 Sudeste 24 Sudeste 0 849 -0.3 64
2019-06-17 09:00:00 12.1 12 Sudeste 21 Sudeste 0 849.3 0 76
2019-06-17 08:00:00 7.9 8 Sudeste 14 Sur 0 849.4 -0.3 83
2019-06-17 07:00:00 7.8 6 Sur 9 Sur 0 849.3 -0.7 80
2019-06-17 06:00:00 9.3 4 Sudeste 7 Sudeste 0 849.3 -1.1 74
2019-06-17 05:00:00 8.7 5 Sudeste 9 Sur 0 849.7 -0.7 84
2019-06-17 04:00:00 8.6 7 Sudeste 9 Sudeste 0 850 -0.9 91
2019-06-17 03:00:00 8.9 4 Sudeste 10 Sur 0 850.4 -0.6 88
2019-06-17 02:00:00 9.2 5 Sudeste 9 Sudeste 0 850.4 -0.6 90
2019-06-17 01:00:00 9 6 Sudeste 10 Sudeste 0 850.9 0.2 92
2019-06-17 00:00:00 9.1 4 Noroeste 10 Noroeste 0 851 0.5 94
2019-06-16 23:00:00 10 8 Noroeste 14 Noroeste 0 851 0.5 93
2019-06-16 22:00:00 11 12 Noroeste 20 Noroeste 0 850.7 0.4 93
2019-06-16 21:00:00 11.7 13 Noroeste 24 Noroeste 0 850.5 0.1 90
2019-06-16 20:00:00 12.8 16 Noroeste 32 Noroeste 0 850.5 0.1 85
2019-06-16 19:00:00 13.7 22 Noroeste 35 Noroeste 0 850.3 -0.3 80
2019-06-16 18:00:00 15.8 17 Noroeste 30 Noroeste 0 850.4 -0.4 67
2019-06-16 17:00:00 17.1 20 Noroeste 29 Noroeste 0 850.4 -0.6 64
2019-06-16 16:00:00 18.6 8 Norte 28 Norte 0 850.6 -0.5 50
2019-06-16 15:00:00 17.9 8 Oeste 30 Sudeste 0 850.8 -0.4 42
2019-06-16 14:00:00 16.9 12 Sudeste 36 Sudeste 0 851 -0.2 43
2019-06-16 13:00:00 16.2 12 Sudeste 33 Sudeste 0 851.1 -0.1 48
2019-06-16 12:00:00 15.2 11 Sudeste 24 Sudeste 0 851.2 0.2 51
2019-06-16 11:00:00 13.5 13 Sudeste 20 Este 0 851.2 0.4 53
2019-06-16 10:00:00 11.4 10 Sudeste 16 Sudeste 0 851.2 0.5 71
2019-06-16 09:00:00 8.8 8 Sudeste 12 Sudeste 0 851 0.3 84
2019-06-16 08:00:00 4.8 6 Sudeste 21 Sur 0 850.8 0 91
2019-06-16 07:00:00 5.1 14 Sur 20 Sur 0 850.7 -0.3 91
2019-06-16 06:00:00 5 11 Sur 18 Sur 0 850.7 -0.6 92
2019-06-16 05:00:00 5.2 13 Sur 18 Sur 0 850.8 -1 93
2019-06-16 04:00:00 5.4 6 Sudeste 11 Sur 0 851 -1 90
2019-06-16 03:00:00 5.3 7 Sudeste 10 Sudeste 0 851.3 -0.7 92
2019-06-16 02:00:00 5.4 6 Sur 9 Sudeste 0 851.8 -0.2 94
2019-06-16 01:00:00 6.1 3 Noroeste 12 Norte 0 852 0.5 95
2019-06-16 00:00:00 6.8 8 Norte 13 Noroeste 0 852 0.4 95
2019-06-15 23:00:00 7.2 10 Noroeste 19 Noroeste 0 852 0.5 95
2019-06-15 22:00:00 7.5 15 Noroeste 25 Noroeste 0 851.5 0 94
2019-06-15 21:00:00 8.4 18 Noroeste 26 Noroeste 0 851.6 0.1 89
2019-06-15 20:00:00 9 18 Noroeste 33 Noroeste 0 851.5 0.1 83
2019-06-15 19:00:00 10.5 20 Noroeste 35 Noroeste 0 851.5 0.2 75
2019-06-15 18:00:00 12.2 18 Noroeste 31 Noroeste 0 851.5 0.2 68
2019-06-15 17:00:00 13.6 15 Norte 26 Sur 0 851.4 0.1 47
2019-06-15 16:00:00 12.9 7 Norte 27 Sudeste 0 851.3 0.3 52
2019-06-15 15:00:00 11.6 9 Este 20 Sudeste 0 851.3 0.4 62
2019-06-15 14:00:00 11.1 12 Sudeste 23 Sudeste 0 851.3 0.9 62
2019-06-15 13:00:00 10 10 Sudeste 25 Sudeste 0 851 0.9 71
2019-06-15 12:00:00 8 9 Sudeste 18 Sudeste 0 850.9 1.2 78
2019-06-15 11:00:00 6 13 Sudeste 21 Sudeste 0 850.4 1.2 86
2019-06-15 10:00:00 5 10 Sudeste 17 Sudeste 0 850.1 1.3 88
2019-06-15 09:00:00 4.7 9 Sudeste 13 Sudeste 0 849.7 1.2 88
2019-06-15 08:00:00 3.7 4 Sur 12 Sudeste 0 849.2 0.7 89
2019-06-15 07:00:00 3.3 3 Noroeste 21 Oeste 0 848.8 0 87
2019-06-15 06:00:00 3.7 6 Norte 12 Norte 0 848.5 0 89
2019-06-15 05:00:00 3.5 6 Noroeste 20 Oeste 0 848.5 0 90
2019-06-15 04:00:00 3.2 12 Noroeste 21 Noroeste 0 848.8 0.3 88
2019-06-15 03:00:00 3.9 9 Oeste 22 Oeste 0.2 848.5 0.4 88
2019-06-15 02:00:00 4.5 10 Noroeste 18 Noroeste 0 848.5 1 95
2019-06-15 01:00:00 4.7 10 Noroeste 22 Noroeste 1.2 848.5 1.5 95
2019-06-15 00:00:00 4.8 16 Noroeste 32 Noroeste 0 848.1 1.6 95
2019-06-14 23:00:00 5.4 14 Noroeste 20 Noroeste 0 847.5 1.6 94
2019-06-14 22:00:00 5.7 12 Noroeste 34 Noroeste 0 847 1.4 92
2019-06-14 21:00:00 6.4 20 Noroeste 33 Noroeste 0 846.5 1.2 93
2019-06-14 20:00:00 7.1 22 Noroeste 30 Noroeste 0 845.9 0.9 88
2019-06-14 19:00:00 7.3 22 Noroeste 35 Noroeste 0 845.6 0.6 88
2019-06-14 18:00:00 8.1 19 Noroeste 35 Noroeste 0 845.3 0.5 86
2019-06-14 17:00:00 9.2 20 Noroeste 31 Noroeste 0 845 0.4 78
2019-06-14 16:00:00 9.4 18 Noroeste 29 Noroeste 0 845 0.6 78
2019-06-14 15:00:00 10.4 20 Noroeste 32 Noroeste 0 844.8 0.5 83
2019-06-14 14:00:00 10.3 16 Noroeste 26 Noroeste 0 844.6 0.5 81
2019-06-14 13:00:00 10.2 13 Norte 36 Sudeste 0 844.4 0.5 72
2019-06-14 12:00:00 9.7 12 Noroeste 21 Noroeste 0 844.3 0.6 75
2019-06-14 11:00:00 8.6 5 Noroeste 17 Noroeste 0 844.1 0.6 71
2019-06-14 10:00:00 6.7 4 Este 12 Sudeste 0 843.9 0.4 82
2019-06-14 09:00:00 4.4 7 Sudeste 11 Sudeste 0 843.7 0.4 91
2019-06-14 08:00:00 0.9 6 Sudeste 10 Sudeste 0 843.5 0.3 95
2019-06-14 07:00:00 0 7 Sudeste 12 Sudeste 0 843.5 -0.1 94
2019-06-14 06:00:00 0.5 2 Este 9 Sudeste 0 843.3 -0.6 94
2019-06-14 05:00:00 2.5 7 Sudeste 12 Sudeste 0 843.2 -1 95
2019-06-14 04:00:00 3.1 7 Sudeste 13 Sudeste 0 843.6 -0.9 95
2019-06-14 03:00:00 1.9 5 Sudeste 11 Sur 0 843.9 -0.7 93
2019-06-14 02:00:00 1.6 4 Noroeste 12 Oeste 0 844.2 -0.2 92
2019-06-14 01:00:00 3.4 8 Oeste 11 Oeste 0 844.5 0.5 95
2019-06-14 00:00:00 4.4 5 Nordeste 13 Noroeste 0 844.6 0.8 95
2019-06-13 23:00:00 4.7 9 Noroeste 18 Noroeste 0 844.4 1 95
2019-06-13 22:00:00 4.9 10 Noroeste 16 Noroeste 0 844 0.8 95
2019-06-13 21:00:00 5.1 12 Noroeste 21 Noroeste 0 843.8 0.8 95
2019-06-13 20:00:00 5.6 15 Noroeste 23 Oeste 0 843.4 0.5 93
2019-06-13 19:00:00 6.4 14 Noroeste 31 Noroeste 0 843.2 0.7 89
2019-06-13 18:00:00 5.8 20 Noroeste 31 Noroeste 0 843 0.4 91
2019-06-13 17:00:00 5.9 22 Noroeste 37 Noroeste 0 842.9 0.5 89
2019-06-13 16:00:00 8.4 20 Noroeste 34 Noroeste 0 842.5 0.3 78
2019-06-13 15:00:00 8.4 21 Noroeste 34 Noroeste 0 842.6 0.4 81
2019-06-13 14:00:00 8.1 17 Noroeste 28 Noroeste 0 842.4 0.4 80
2019-06-13 13:00:00 7.6 17 Noroeste 26 Noroeste 0 842.2 0.2 84
2019-06-13 12:00:00 6.2 15 Noroeste 24 Norte 0 842.2 0.3 86
2019-06-13 11:00:00 6.3 15 Noroeste 23 Noroeste 0 842 0.2 86
2019-06-13 10:00:00 6.7 7 Este 13 Este 0 842 0 82
2019-06-13 09:00:00 3.4 8 Sudeste 11 Sudeste 0 841.9 -0.1 95
2019-06-13 08:00:00 2 5 Sudeste 8 Sur 0 841.8 -0.2 95
2019-06-13 07:00:00 0.8 2 Noroeste 7 Sur 0 842 -0.3 94
2019-06-13 06:00:00 1.5 3 Noroeste 6 Oeste 0 842 -0.6 95
2019-06-13 05:00:00 2.2 0 Calma 8 Noroeste 0 842 -1 95
2019-06-13 04:00:00 2.3 5 Norte 11 Noroeste 0 842.3 -1.1 95
2019-06-13 03:00:00 2.6 3 Oeste 11 Noroeste 0 842.6 -1.2 95
2019-06-13 02:00:00 3.1 8 Noroeste 13 Norte 0 843 -1.2 95
2019-06-13 01:00:00 3.6 8 Noroeste 10 Norte 0 843.4 -0.6 95
2019-06-13 00:00:00 3.9 7 Noroeste 11 Noroeste 0 843.8 -0.2 95
2019-06-12 23:00:00 4.1 8 Noroeste 18 Noroeste 0 844.2 0.2 95
2019-06-12 22:00:00 4.2 12 Noroeste 22 Noroeste 0 844 0 94
2019-06-12 21:00:00 4.7 14 Noroeste 26 Noroeste 0 844 -0.4 93
2019-06-12 20:00:00 5.9 17 Noroeste 28 Oeste 0 844 -0.5 85
2019-06-12 19:00:00 6.3 19 Noroeste 36 Noroeste 0 844 -0.6 80
2019-06-12 18:00:00 8.7 20 Noroeste 38 Noroeste 0 844.4 -0.5 67
2019-06-12 17:00:00 8.5 18 Noroeste 31 Noroeste 0 844.5 -0.8 70
2019-06-12 16:00:00 8.1 17 Noroeste 31 Noroeste 0 844.6 -0.9 71
2019-06-12 15:00:00 7.5 17 Noroeste 27 Noroeste 0 844.9 -0.6 75
2019-06-12 14:00:00 6.8 15 Noroeste 28 Noroeste 0 845.3 -0.2 77
2019-06-12 13:00:00 7 10 Norte 21 Noroeste 0 845.5 0.2 76
2019-06-12 12:00:00 5.7 9 Noroeste 21 Noroeste 0 845.5 0.1 76
2019-06-12 11:00:00 4.8 12 Norte 19 Noroeste 0 845.5 0.3 78
2019-06-12 10:00:00 4.1 15 Noroeste 22 Noroeste 0 845.3 0.3 83
2019-06-12 09:00:00 2.1 9 Noroeste 31 Noroeste 0 845.4 0.3 95
2019-06-12 08:00:00 0.9 20 Noroeste 40 Noroeste 0.2 845.2 -0.4 95
2019-06-12 07:00:00 0.7 20 Noroeste 40 Noroeste 0.4 845 -1 95
2019-06-12 06:00:00 0.4 13 Noroeste 25 Norte 0.2 845.1 -1.3 95
2019-06-12 05:00:00 0.5 14 Noroeste 28 Noroeste 0 845.6 -1.2 94
2019-06-12 04:00:00 0.2 16 Noroeste 34 Noroeste 0 846 -1.3 94
2019-06-12 03:00:00 0.8 22 Noroeste 44 Noroeste 0 846.4 -1.3 95
2019-06-12 02:00:00 0.8 28 Noroeste 44 Noroeste 0.8 846.8 -1.1 95
2019-06-12 01:00:00 1.3 20 Noroeste 37 Noroeste 0.2 847.3 -0.6 94
2019-06-12 00:00:00 1.7 20 Noroeste 33 Noroeste 0 847.7 -0.6 94
2019-06-11 23:00:00 1.9 14 Noroeste 39 Noroeste 0.2 847.9 -0.4 93
2019-06-11 22:00:00 2.3 22 Noroeste 37 Noroeste 0 847.9 -0.6 93
2019-06-11 21:00:00 3 21 Noroeste 41 Noroeste 0 848.3 -0.1 94
2019-06-11 20:00:00 3.3 21 Noroeste 39 Oeste 0 848.3 -0.2 93
2019-06-11 19:00:00 3.7 19 Noroeste 39 Noroeste 0 848.5 0.3 92
2019-06-11 18:00:00 3.3 19 Noroeste 34 Noroeste 0.6 848.4 0.1 94
2019-06-11 17:00:00 4.2 21 Noroeste 46 Norte 0.2 848.5 0.2 94
2019-06-11 16:00:00 3.8 26 Noroeste 50 Noroeste 0.6 848.2 0 94
2019-06-11 15:00:00 2.7 24 Noroeste 48 Noroeste 1.2 848.3 0.5 94
2019-06-11 14:00:00 2 27 Noroeste 46 Noroeste 0.6 848.3 0.9 94
2019-06-11 13:00:00 2.2 23 Noroeste 44 Noroeste 0.6 848.2 1.1 95
2019-06-11 12:00:00 2 21 Noroeste 40 Noroeste 1.2 847.8 1.2 95
2019-06-11 11:00:00 0.4 21 Noroeste 41 Oeste 0.6 847.4 1 95
2019-06-11 10:00:00 0.5 23 Noroeste 45 Noroeste 0 847.1 1 95
2019-06-11 09:00:00 0.9 28 Noroeste 51 Noroeste 0.4 846.6 0.7 95
2019-06-11 08:00:00 0.5 27 Noroeste 54 Noroeste 1.2 846.4 0.3 96
2019-06-11 07:00:00 0.5 24 Noroeste 46 Noroeste 1.6 846.1 -0.4 96
2019-06-11 06:00:00 1.3 22 Noroeste 48 Noroeste 1.4 845.9 -1 96
2019-06-11 05:00:00 2 23 Noroeste 44 Noroeste 1.4 846.1 -1.3 96
2019-06-11 04:00:00 2 22 Noroeste 37 Oeste 0.4 846.5 -1.2 96
2019-06-11 03:00:00 1.8 15 Noroeste 26 Oeste 0.6 846.9 -1.1 95
2019-06-11 02:00:00 1.7 17 Noroeste 36 Noroeste 0.2 847.4 -0.6 95
2019-06-11 01:00:00 2.5 19 Noroeste 33 Noroeste 0 847.7 -0.2 96
2019-06-11 00:00:00 2.9 18 Noroeste 31 Noroeste 0.4 848 0 96
2019-06-10 23:00:00 3.4 13 Noroeste 26 Norte 1 848 -0.2 95
2019-06-10 22:00:00 3.9 17 Noroeste 30 Noroeste 0.2 847.9 -0.4 95
2019-06-10 21:00:00 4.7 16 Noroeste 27 Norte 0 848 -0.6 95
2019-06-10 20:00:00 5.2 15 Noroeste 29 Norte 0 848.2 -0.6 94
2019-06-10 19:00:00 6.4 17 Noroeste 31 Noroeste 0 848.3 -0.7 87
2019-06-10 18:00:00 7 17 Noroeste 27 Noroeste 0 848.6 -0.9 84
2019-06-10 17:00:00 9.3 15 Noroeste 29 Oeste 0 848.8 -0.9 68
2019-06-10 16:00:00 10.1 15 Noroeste 27 Noroeste 0 849 -0.8 64
2019-06-10 15:00:00 9.9 16 Noroeste 30 Noroeste 0 849.5 -0.4 68
2019-06-10 14:00:00 9.7 14 Noroeste 29 Noroeste 0 849.7 -0.2 68
2019-06-10 13:00:00 8.4 13 Noroeste 26 Noroeste 0 849.8 -0.1 69
2019-06-10 12:00:00 8 9 Noroeste 21 Norte 0 849.9 0.2 74
2019-06-10 11:00:00 6 9 Noroeste 17 Noroeste 0 849.9 0.2 79
2019-06-10 10:00:00 5.4 11 Noroeste 15 Noroeste 0 849.9 0.4 91
2019-06-10 09:00:00 3.7 4 Noroeste 8 Noroeste 0 849.7 0.3 93
2019-06-10 08:00:00 1.1 5 Noroeste 9 Noroeste 0 849.7 -0.1 93
2019-06-10 07:00:00 0.9 5 Noroeste 12 Noroeste 0 849.5 -0.5 91
2019-06-10 06:00:00 0.9 8 Noroeste 10 Noroeste 0 849.4 -1 92
2019-06-10 05:00:00 0.3 4 Noroeste 7 Oeste 0 849.8 -1.1 93
2019-06-10 04:00:00 0.8 2 Noroeste 12 Noroeste 0 850 -1.1 94
2019-06-10 03:00:00 1.6 6 Noroeste 15 Noroeste 0 850.4 -0.9 95
2019-06-10 02:00:00 3.1 12 Noroeste 17 Noroeste 0 850.9 0.1 96
2019-06-10 01:00:00 2.6 9 Noroeste 18 Noroeste 0 851.1 0.7 96
2019-06-10 00:00:00 4.1 11 Noroeste 28 Noroeste 0 851.3 0.8 96
2019-06-09 23:00:00 4.4 21 Noroeste 32 Noroeste 0 850.8 0.3 96
2019-06-09 22:00:00 4.4 24 Noroeste 33 Noroeste 0 850.4 0.4 96
2019-06-09 21:00:00 5 15 Noroeste 27 Noroeste 0 850.5 0.9 96
2019-06-09 20:00:00 5.3 18 Noroeste 32 Noroeste 0 850.5 0.9 95
2019-06-09 19:00:00 5.8 18 Noroeste 37 Noroeste 0 850 0.5 95
2019-06-09 18:00:00 6.1 24 Noroeste 37 Noroeste 0 849.6 0.1 94
2019-06-09 17:00:00 6.6 19 Noroeste 31 Noroeste 0 849.6 0.2 90
2019-06-09 16:00:00 7.4 19 Noroeste 33 Noroeste 0 849.5 0.2 88
2019-06-09 15:00:00 8.5 22 Noroeste 32 Noroeste 0 849.5 0.4 82
2019-06-09 14:00:00 10.4 17 Noroeste 29 Norte 0 849.4 0.2 75
2019-06-09 13:00:00 10.2 16 Noroeste 31 Noroeste 0 849.3 0.4 77
2019-06-09 12:00:00 8.7 13 Norte 19 Noroeste 0 849.1 0.6 81
2019-06-09 11:00:00 5.5 12 Noroeste 20 Norte 0 849.2 0.8 95
2019-06-09 10:00:00 5.1 13 Noroeste 21 Noroeste 0 848.9 0.6 95
2019-06-09 09:00:00 3.6 13 Norte 18 Norte 0 848.5 0.1 95
2019-06-09 08:00:00 1.3 12 Norte 18 Norte 0 848.4 -0.3 93
2019-06-09 07:00:00 2 5 Noroeste 10 Noroeste 0 848.3 -0.6 85
2019-06-09 06:00:00 1.9 0 Calma 5 Oeste 0 848.4 -1 90
2019-06-09 05:00:00 2.7 6 Noroeste 15 Noroeste 0 848.7 -1.1 95
2019-06-09 04:00:00 4.1 2 Sur 7 Sudeste 0 848.9 -1.3 95
2019-06-09 03:00:00 3.5 4 Sudeste 5 Sudeste 0 849.4 -1.4 95
2019-06-09 02:00:00 3.2 0 Calma 4 Noroeste 0 849.8 -0.9 95
2019-06-09 01:00:00 4.3 4 Sudeste 7 Sudeste 0 850.2 -0.3 95
2019-06-09 00:00:00 4.9 5 Noroeste 13 Noroeste 0 850.8 0.4 96
2019-06-08 23:00:00 5 6 Norte 16 Noroeste 0 850.7 0.2 96
2019-06-08 22:00:00 5.2 13 Noroeste 18 Noroeste 0 850.5 -0.3 95
2019-06-08 21:00:00 5.5 12 Noroeste 19 Noroeste 0 850.4 -0.5 95
2019-06-08 20:00:00 6.1 5 Sudeste 25 Noroeste 0 850.5 -0.2 95
2019-06-08 19:00:00 5.6 18 Noroeste 33 Noroeste 0 850.8 -0.1 95
2019-06-08 18:00:00 6.8 22 Noroeste 33 Noroeste 0 850.9 -0.3 90
2019-06-08 17:00:00 9.8 19 Noroeste 28 Noroeste 0 850.7 -0.6 80
2019-06-08 16:00:00 11.2 17 Noroeste 27 Noroeste 0 850.9 -0.7 75
2019-06-08 15:00:00 11 12 Noroeste 30 Sudeste 0 851.2 -0.4 70
2019-06-08 14:00:00 11.1 11 Sudeste 28 Sudeste 0 851.3 -0.4 51
2019-06-08 13:00:00 10 13 Sudeste 29 Sudeste 0 851.6 -0.3 57
2019-06-08 12:00:00 8.4 12 Sudeste 21 Sur 0 851.6 -0.1 67
2019-06-08 11:00:00 6.2 13 Sudeste 23 Sudeste 0 851.7 -0.1 72
2019-06-08 10:00:00 4.8 12 Sur 21 Sur 0 851.9 0.3 76
2019-06-08 09:00:00 1.5 6 Sudeste 10 Este 0 851.7 0 88
2019-06-08 08:00:00 -0.5 8 Sudeste 12 Sur 0 851.8 0.1 89
2019-06-08 07:00:00 0 7 Sur 11 Sur 0 851.6 0 84
2019-06-08 06:00:00 -0.6 4 Sudeste 9 Sur 0 851.7 -0.2 88
2019-06-08 05:00:00 -0.8 0 Calma 5 Sur 0 851.7 -0.4 90
2019-06-08 04:00:00 -0.7 0 Calma 6 Sur 0 851.6 -0.5 87
2019-06-08 03:00:00 -0.1 2 Noroeste 6 Noroeste 0 851.9 -0.2 88
2019-06-08 02:00:00 0.3 2 Noroeste 10 Noroeste 0 852.1 0.3 89
2019-06-08 01:00:00 0.7 7 Noroeste 12 Noroeste 0 852.1 1 89
2019-06-08 00:00:00 1 4 Noroeste 16 Norte 0 852.1 1.2 91
2019-06-07 23:00:00 1.8 4 Noroeste 15 Noroeste 0 851.8 1.3 88
2019-06-07 22:00:00 3.1 4 Noroeste 17 Noroeste 0 851.1 1 90
2019-06-07 21:00:00 3.4 8 Noroeste 21 Noroeste 0.2 850.9 1.1 88
2019-06-07 20:00:00 3.3 12 Noroeste 22 Noroeste 0.8 850.5 1.6 90
2019-06-07 19:00:00 4.8 14 Noroeste 27 Noroeste 0 850.1 1.5 79
2019-06-07 18:00:00 4 10 Norte 31 Norte 1 849.8 1.8 88
2019-06-07 17:00:00 5.2 17 Norte 32 Noroeste 0 848.9 1.6 78
2019-06-07 16:00:00 4.4 13 Noroeste 40 Noroeste 0 848.6 2.1 79
2019-06-07 15:00:00 3.5 11 Noroeste 25 Noroeste 1 848 2.4 89
2019-06-07 14:00:00 3.4 20 Noroeste 34 Noroeste 0 847.3 2.5 85
2019-06-07 13:00:00 5.1 15 Noroeste 48 Noroeste 0 846.5 2.6 78
2019-06-07 12:00:00 2.8 12 Noroeste 33 Oeste 0.6 845.6 2.4 85
2019-06-07 11:00:00 1.6 13 Noroeste 30 Noroeste 0.8 844.8 3 86
2019-06-07 10:00:00 0.6 12 Noroeste 37 Noroeste 0.4 843.9 3 92
2019-06-07 09:00:00 0.7 19 Noroeste 36 Noroeste 0.2 843.2 3.1 87
2019-06-07 08:00:00 0.5 15 Noroeste 38 Noroeste 0.2 841.8 2.6 91
2019-06-07 07:00:00 0.5 16 Noroeste 49 Noroeste 0.4 840.9 2.3 91
2019-06-07 06:00:00 0.6 19 Noroeste 47 Oeste 0.4 840.1 1.9 89
2019-06-07 05:00:00 0.7 21 Noroeste 58 Noroeste 0.4 839.2 2 90
2019-06-07 04:00:00 0.5 26 Noroeste 53 Noroeste 0 838.6 1.5 90
2019-06-07 03:00:00 0.8 24 Noroeste 60 Oeste 1 838.2 1.7 89
2019-06-07 02:00:00 1.5 22 Noroeste 66 Noroeste 0.2 837.2 1.1 89
2019-06-07 01:00:00 1.4 33 Noroeste 62 Noroeste 1 837.1 1.3 89
2019-06-07 00:00:00 2 19 Noroeste 39 Noroeste 1.8 836.5 1 89
2019-06-06 23:00:00 3.4 10 Norte 56 Noroeste 0 836.1 1.1 79
2019-06-06 22:00:00 4 18 Noroeste 50 Noroeste 0 835.8 1.3 76
2019-06-06 21:00:00 4.8 10 Nordeste 46 Sudeste 0.2 835.5 0.6 79
2019-06-06 20:00:00 5 22 Norte 69 Sudeste 4.4 835 -0.9 88
2019-06-06 19:00:00 5.5 20 Sudeste 54 Sudeste 3.6 834.5 -1.7 91
2019-06-06 18:00:00 4.8 28 Sudeste 58 Sudeste 4.4 834.9 -2 90
2019-06-06 17:00:00 5.2 31 Sudeste 49 Sudeste 1.8 835.9 -1.7 88
2019-06-06 16:00:00 6.3 27 Sudeste 59 Sudeste 0.4 836.2 -2.2 84
2019-06-06 15:00:00 7.2 31 Sudeste 57 Sudeste 0 836.9 -2.5 70
2019-06-06 14:00:00 6.8 30 Sudeste 61 Sudeste 0 837.6 -2.6 70
2019-06-06 13:00:00 6.3 30 Sudeste 59 Sudeste 0 838.4 -2.9 72
2019-06-06 12:00:00 6.6 25 Sudeste 43 Sudeste 0 839.4 -2.1 71
2019-06-06 11:00:00 6.5 24 Sudeste 36 Sudeste 0 840.2 -1.9 77
2019-06-06 10:00:00 3.4 15 Sudeste 31 Sudeste 0 841.3 -1.4 86
2019-06-06 09:00:00 3.3 22 Sudeste 35 Sudeste 0 841.5 -1.5 86
2019-06-06 08:00:00 0.8 13 Sudeste 19 Sudeste 0 842.1 -1.3 93
2019-06-06 07:00:00 0.7 13 Sur 20 Sudeste 0 842.7 -1.2 91
2019-06-06 06:00:00 0.6 14 Sudeste 30 Este 0 843 -1.4 91
2019-06-06 05:00:00 0.3 8 Sudeste 21 Sudeste 0 843.4 -1.3 90
2019-06-06 04:00:00 0.6 10 Sudeste 15 Sudeste 0 843.9 -1.1 92
2019-06-06 03:00:00 0.8 3 Sudoeste 14 Sudoeste 0 844.4 -0.7 88
2019-06-06 02:00:00 1.4 3 Oeste 21 Noroeste 0 844.7 -0.5 86
2019-06-06 01:00:00 1.1 9 Noroeste 15 Norte 0.2 845 -0.1 90
2019-06-06 00:00:00 1.3 12 Noroeste 19 Noroeste 0 845.1 0.1 90
2019-06-05 23:00:00 1.6 10 Noroeste 25 Noroeste 0.8 845.2 0.3 87
2019-06-05 22:00:00 1.1 7 Noroeste 30 Oeste 1 845.1 0.1 89
2019-06-05 21:00:00 3 3 Este 15 Norte 0 845 0.2 87
2019-06-05 20:00:00 2.4 13 Norte 27 Noroeste 0.4 844.9 0.1 88
2019-06-05 19:00:00 2.8 17 Noroeste 27 Noroeste 0.2 845 0.2 89
2019-06-05 18:00:00 2.5 15 Norte 38 Noroeste 0.6 844.8 -0.2 90
2019-06-05 17:00:00 5.3 15 Noroeste 27 Norte 0.6 844.8 0.3 79
2019-06-05 16:00:00 5.4 11 Noroeste 26 Noroeste 0 844.8 0.5 79
2019-06-05 15:00:00 3.5 13 Noroeste 44 Noroeste 1.4 845 0.9 93
2019-06-05 14:00:00 6 19 Noroeste 39 Noroeste 1.4 844.5 0.5 82
2019-06-05 13:00:00 5 16 Noroeste 35 Noroeste 0.2 844.3 0.8 86
2019-06-05 12:00:00 4.1 17 Noroeste 31 Noroeste 0 844.1 1 92
2019-06-05 11:00:00 2.3 13 Noroeste 32 Noroeste 0.8 844 1.2 95
2019-06-05 10:00:00 3 17 Noroeste 27 Noroeste 0.6 843.5 1 95
2019-06-05 09:00:00 1.9 20 Noroeste 30 Noroeste 0.4 843.1 0.8 94
2019-06-05 08:00:00 1.8 14 Noroeste 23 Noroeste 0.6 842.8 0.5 95
2019-06-05 07:00:00 1.6 16 Noroeste 30 Noroeste 1.4 842.5 0 95
2019-06-05 06:00:00 1.9 18 Noroeste 33 Noroeste 1.2 842.3 -0.5 95
2019-06-05 05:00:00 2.3 14 Noroeste 30 Noroeste 0 842.3 -0.7 95
2019-06-05 04:00:00 2.1 17 Noroeste 37 Noroeste 0.8 842.5 -0.7 94
2019-06-05 03:00:00 2.9 19 Noroeste 30 Noroeste 0 842.8 -0.9 95
2019-06-05 02:00:00 2.9 15 Noroeste 28 Noroeste 0 843 -0.6 93
2019-06-05 01:00:00 3.2 23 Noroeste 30 Noroeste 0.4 843.2 -0.2 92
2019-06-05 00:00:00 3.7 13 Noroeste 26 Noroeste 0 843.7 0.4 94
2019-06-04 23:00:00 4.2 11 Noroeste 23 Noroeste 0.4 843.6 0.5 94
2019-06-04 22:00:00 4.3 18 Noroeste 30 Noroeste 0.4 843.4 0.2 94
2019-06-04 21:00:00 5.5 14 Noroeste 30 Noroeste 0.6 843.3 -0.2 93
2019-06-04 20:00:00 7.4 18 Noroeste 33 Noroeste 0 843.1 -0.6 86
2019-06-04 19:00:00 8.9 6 Noroeste 29 Norte 0 843.2 -0.4 70
2019-06-04 18:00:00 8.7 7 Noroeste 26 Noroeste 0 843.5 0.1 73
2019-06-04 17:00:00 8.3 12 Noroeste 26 Noroeste 0 843.7 0.4 78
2019-06-04 16:00:00 8.2 12 Noroeste 26 Norte 2.2 843.6 0.5 90
2019-06-04 15:00:00 8.4 8 Noroeste 31 Noroeste 1 843.4 0.4 87
2019-06-04 14:00:00 8.6 15 Noroeste 34 Noroeste 1.8 843.3 0.6 91
2019-06-04 13:00:00 9.4 7 Norte 26 Sudeste 0.8 843.1 0.1 89
2019-06-04 12:00:00 9.1 10 Sudeste 19 Sur 0.2 843 0.1 87
2019-06-04 11:00:00 8.7 11 Sudeste 25 Sudeste 0 842.7 -0.1 85
2019-06-04 10:00:00 7.6 6 Sudeste 25 Sudeste 0 843 0.2 87
2019-06-04 09:00:00 8.2 13 Sudeste 27 Sudeste 0 842.9 -0.1 85
2019-06-04 08:00:00 6.7 15 Sudeste 26 Sudeste 0 842.8 -0.5 86
2019-06-04 07:00:00 6.7 9 Sur 14 Sur 0 842.8 -1 83
2019-06-04 06:00:00 8.5 6 Sudeste 21 Este 0 843 -1.6 79
2019-06-04 05:00:00 8.3 10 Sudeste 24 Sur 0 843.3 -1.7 78
2019-06-04 04:00:00 8.7 10 Este 29 Sudeste 0 843.8 -2.1 74
2019-06-04 03:00:00 8.9 4 Este 26 Sur 0 844.6 -1.8 82
2019-06-04 02:00:00 9.8 4 Sudeste 26 Este 0 845 -1.7 81
2019-06-04 01:00:00 11.6 10 Sudeste 27 Sudeste 0 845.9 -1 82
2019-06-04 00:00:00 11.4 7 Sudeste 28 Sudeste 0 846.4 -1 83
2019-06-03 23:00:00 11.8 12 Sudeste 26 Sudeste 0 846.7 -0.7 83
2019-06-03 22:00:00 12 8 Noroeste 14 Noroeste 0 846.9 -0.6 90
2019-06-03 21:00:00 13.2 8 Norte 19 Noroeste 0 847.4 -0.4 93
2019-06-03 20:00:00 14 11 Noroeste 20 Noroeste 0 847.4 -0.4 90
2019-06-03 19:00:00 15.4 15 Noroeste 26 Noroeste 0 847.5 -0.7 84
2019-06-03 18:00:00 16.3 18 Noroeste 33 Noroeste 0 847.8 -1.1 82
2019-06-03 17:00:00 19.2 10 Noroeste 37 Sudeste 0 847.8 -1.3 62
2019-06-03 16:00:00 19.3 12 Sudeste 52 Sudeste 0 848.2 -1.2 48
2019-06-03 15:00:00 18.2 19 Sudeste 36 Sudeste 0 848.9 -0.6 52
2019-06-03 14:00:00 18 11 Norte 21 Noroeste 0 849.1 -0.7 66
2019-06-03 13:00:00 16.6 15 Noroeste 22 Noroeste 0 849.4 -0.4 63
2019-06-03 12:00:00 15.4 8 Noroeste 22 Sudeste 0 849.5 -0.4 64
2019-06-03 11:00:00 15.5 12 Sudeste 20 Sudeste 0 849.8 0.3 63
2019-06-03 10:00:00 12.6 11 Sudeste 15 Sudeste 0 849.8 0.3 63
2019-06-03 09:00:00 11.6 6 Sudeste 10 Sudeste 0 849.9 0.6 66
2019-06-03 08:00:00 10.4 6 Sudeste 8 Sudeste 0 849.5 0.2 74
2019-06-03 07:00:00 9.9 0 Calma 5 Noroeste 0 849.5 -0.3 73
2019-06-03 06:00:00 9.8 4 Noroeste 17 Noroeste 0 849.3 -1 77
2019-06-03 05:00:00 10.3 9 Sudeste 12 Sudeste 0 849.3 -0.9 63
2019-06-03 04:00:00 11.2 9 Sudeste 15 Sudeste 0 849.8 -1 58
2019-06-03 03:00:00 10.4 4 Noroeste 22 Noroeste 0 850.3 -0.8 69
2019-06-03 02:00:00 12.5 10 Sudeste 18 Noroeste 0 850.2 -0.9 45
2019-06-03 01:00:00 12.4 7 Noroeste 13 Oeste 0 850.8 -0.2 52
2019-06-03 00:00:00 11.4 5 Noroeste 15 Oeste 0 851.1 0.2 60
2019-06-02 23:00:00 12.1 7 Noroeste 12 Noroeste 0 851.1 0.2 58
2019-06-02 22:00:00 12.8 7 Noroeste 12 Noroeste 0 851 0 59
2019-06-02 21:00:00 14.3 7 Noroeste 14 Noroeste 0 850.9 -0.4 52
2019-06-02 20:00:00 16 9 Noroeste 31 Noroeste 0 850.9 -0.3 44
2019-06-02 19:00:00 18.7 8 Norte 27 Sudeste 0 851 -0.4 38
2019-06-02 18:00:00 18.8 13 Sudeste 30 Sudeste 0 851.3 -0.2 33
2019-06-02 17:00:00 18.4 18 Sudeste 35 Sudeste 0 851.2 -0.6 34
2019-06-02 16:00:00 19 13 Sudeste 42 Sudeste 0 851.4 -0.5 35
2019-06-02 15:00:00 19.2 13 Sudeste 50 Sudeste 0 851.5 -0.3 35
2019-06-02 14:00:00 19.4 10 Sudeste 36 Sur 0 851.8 0.1 38
2019-06-02 13:00:00 19.1 15 Sudeste 35 Sur 0 851.9 0.2 34
2019-06-02 12:00:00 19.6 10 Este 22 Sudeste 0 851.8 0.3 32
2019-06-02 11:00:00 18.5 8 Sudeste 19 Sudeste 0 851.7 0.2 34
2019-06-02 10:00:00 16.8 12 Sudeste 18 Sudeste 0 851.7 0.4 37
2019-06-02 09:00:00 12.7 6 Sudeste 12 Sur 0 851.5 0.2 57
2019-06-02 08:00:00 12 4 Sudeste 11 Sur 0 851.5 -0.2 48
2019-06-02 07:00:00 11 4 Sur 12 Sudoeste 0 851.3 -0.6 49
2019-06-02 06:00:00 10.6 3 Noroeste 13 Sudoeste 0 851.3 -1.1 52
2019-06-02 05:00:00 10.5 2 Oeste 10 Sur 0 851.7 -1.1 56
2019-06-02 04:00:00 11.5 3 Sudeste 10 Noroeste 0 851.9 -1.4 57
2019-06-02 03:00:00 11.3 3 Noroeste 8 Sudoeste 0 852.4 -1.2 58
2019-06-02 02:00:00 11.1 2 Noroeste 9 Noroeste 0 852.8 -0.7 76
2019-06-02 01:00:00 11.5 3 Norte 13 Noroeste 0 853.3 0.3 77
2019-06-02 00:00:00 12.5 10 Noroeste 15 Noroeste 0 853.6 0.8 77
2019-06-01 23:00:00 13.6 8 Noroeste 16 Noroeste 0 853.5 0.7 76
2019-06-01 22:00:00 14.5 13 Noroeste 22 Noroeste 0 853 0.3 75
2019-06-01 21:00:00 18.4 12 Noroeste 28 Noroeste 0 852.8 -0.3 56
2019-06-01 20:00:00 20.1 15 Noroeste 32 Noroeste 0 852.8 -0.5 47
2019-06-01 19:00:00 20.7 16 Noroeste 28 Noroeste 0 852.7 -0.7 43
2019-06-01 18:00:00 20.5 14 Noroeste 36 Oeste 0 853.1 -0.7 41
2019-06-01 17:00:00 21 13 Noroeste 26 Noroeste 0 853.3 -1 40
2019-06-01 16:00:00 21.9 14 Norte 50 Sur 0 853.4 -1.1 36
2019-06-01 15:00:00 23.6 9 Este 24 Sur 0 853.8 -0.6 31
2019-06-01 14:00:00 22.7 8 Sur 24 Este 0 854.3 -0.1 32
2019-06-01 13:00:00 22.6 9 Este 36 Sur 0 854.5 0.1 40
2019-06-01 12:00:00 21.9 10 Sudeste 23 Sudeste 0 854.4 0.1 36
2019-06-01 11:00:00 20.7 9 Sudeste 14 Sudeste 0 854.4 0.1 41
2019-06-01 10:00:00 19.3 9 Sudeste 14 Sudeste 0 854.4 0.3 43
2019-06-01 09:00:00 17.5 8 Sudeste 14 Sur 0 854.3 0.1 46
2019-06-01 08:00:00 13.4 7 Sudeste 15 Sur 0 854.3 -0.1 53
2019-06-01 07:00:00 13.3 11 Sur 17 Sur 0 854.1 -0.4 53
2019-06-01 06:00:00 13.5 11 Sur 16 Sur 0 854.2 -0.7 53
2019-06-01 05:00:00 13.6 9 Sur 15 Sur 0 854.4 -0.6 55
2019-06-01 04:00:00 14.1 9 Sur 14 Sur 0 854.5 -0.9 55
2019-06-01 03:00:00 12.3 3 Sudeste 12 Sudeste 0 854.9 -0.7 59
2019-06-01 02:00:00 12.1 0 Calma 5 Noroeste 0 855 -0.5 60
2019-06-01 01:00:00 12.7 0 Calma 6 Oeste 0 855.4 0.3 60
2019-06-01 00:00:00 13.3 2 Noroeste 13 Oeste 0 855.6 0.5 56
2019-05-31 23:00:00 14.4 9 Noroeste 13 Noroeste 0 855.5 0.5 53
2019-05-31 22:00:00 15.5 10 Noroeste 17 Noroeste 0 855.1 -0.1 52
2019-05-31 21:00:00 18.5 14 Noroeste 26 Noroeste 0 855.1 -0.3 47
2019-05-31 20:00:00 20.6 16 Noroeste 29 Noroeste 0 855 -0.7 45
2019-05-31 19:00:00 21.8 16 Noroeste 29 Noroeste 0 855.2 -0.8 36
2019-05-31 18:00:00 22.3 18 Noroeste 36 Noroeste 0 855.4 -0.9 36
2019-05-31 17:00:00 22.6 17 Noroeste 33 Oeste 0 855.7 -0.8 39
2019-05-31 16:00:00 22.8 17 Noroeste 28 Noroeste 0 856 -0.7 41
2019-05-31 15:00:00 22.4 12 Noroeste 26 Noroeste 0 856.3 -0.3 42
2019-05-31 14:00:00 21.9 13 Noroeste 28 Noroeste 0 856.5 -0.1 43
2019-05-31 13:00:00 21.1 15 Noroeste 24 Noroeste 0 856.7 0 43
2019-05-31 12:00:00 20.8 12 Noroeste 21 Noroeste 0 856.6 -0.1 41
2019-05-31 11:00:00 19.4 8 Sudeste 14 Sudeste 0 856.6 -0.2 51
2019-05-31 10:00:00 17.6 9 Sudeste 12 Sudeste 0 856.7 0.2 57
2019-05-31 09:00:00 14.8 6 Sudeste 13 Sudeste 0 856.7 0.1 60
2019-05-31 08:00:00 10 8 Sudeste 13 Sudeste 0 856.8 0 72
2019-05-31 07:00:00 10.6 7 Sudeste 12 Sudeste 0 856.5 -0.6 68
2019-05-31 06:00:00 10.9 6 Sudeste 16 Sur 0 856.6 -0.8 68
2019-05-31 05:00:00 11.9 10 Sur 18 Sur 0 856.8 -0.9 63
2019-05-31 04:00:00 12.4 10 Sur 15 Sur 0 857.1 -0.8 57
2019-05-31 03:00:00 12.7 10 Sur 16 Sur 0 857.4 -0.7 57
2019-05-31 02:00:00 10.6 7 Sudeste 22 Sudeste 0 857.7 -0.2 72
2019-05-31 01:00:00 12.5 6 Sudeste 9 Sur 0 857.9 0.4 54
2019-05-31 00:00:00 12.4 3 Sur 15 Sur 0 858.1 0.9 57
2019-05-30 23:00:00 12.4 2 Noroeste 14 Noroeste 0 857.9 0.8 55
2019-05-30 22:00:00 13.8 10 Noroeste 23 Oeste 0 857.5 0.3 59
2019-05-30 21:00:00 17 18 Noroeste 28 Noroeste 0 857.2 -0.3 51
2019-05-30 20:00:00 18.7 17 Noroeste 33 Noroeste 0 857.1 -0.6 48
2019-05-30 19:00:00 19.8 22 Noroeste 42 Oeste 0 857.2 -0.6 46
2019-05-30 18:00:00 20.7 20 Noroeste 40 Oeste 0 857.5 -0.5 43
2019-05-30 17:00:00 20.9 20 Noroeste 36 Oeste 0 857.7 -0.3 47
2019-05-30 16:00:00 20.6 19 Noroeste 33 Noroeste 0 857.8 -0.1 48
2019-05-30 15:00:00 20.5 18 Noroeste 28 Oeste 0 858 0.1 50
2019-05-30 14:00:00 20 17 Noroeste 27 Noroeste 0 858 0.2 55
2019-05-30 13:00:00 19.5 15 Noroeste 24 Noroeste 0 857.9 0.3 53
2019-05-30 12:00:00 18.6 15 Noroeste 20 Noroeste 0 857.9 0.5 54
2019-05-30 11:00:00 17.9 13 Noroeste 18 Noroeste 0 857.8 0.7 53
2019-05-30 10:00:00 17.4 5 Noroeste 10 Noroeste 0 857.6 0.6 53
2019-05-30 09:00:00 12.9 0 Calma 5 Sudeste 0 857.4 0.4 62
2019-05-30 08:00:00 8.9 0 Calma 5 Sur 0 857.1 0.1 62
2019-05-30 07:00:00 8.1 3 Sudeste 5 Sudeste 0 857 -0.1 65
2019-05-30 06:00:00 8.2 4 Sudeste 8 Sudeste 0 857 -0.2 61
2019-05-30 05:00:00 9 5 Sudeste 8 Sudeste 0 857 -0.5 55
2019-05-30 04:00:00 8.8 6 Sur 9 Sur 0 857.1 -0.7 57
2019-05-30 03:00:00 8.6 4 Sudeste 6 Sudeste 0 857.2 -0.7 62
2019-05-30 02:00:00 9.6 2 Norte 12 Sur 0 857.5 -0.1 52
2019-05-30 01:00:00 9.9 9 Sur 14 Sur 0 857.8 0.7 64
2019-05-30 00:00:00 9.9 5 Sudeste 10 Sudoeste 0 857.9 1.2 51
2019-05-29 23:00:00 10.1 5 Norte 11 Norte 0 857.6 1 52
2019-05-29 22:00:00 10.6 9 Noroeste 14 Noroeste 0 857.1 0.6 80
2019-05-29 21:00:00 13.7 11 Noroeste 20 Noroeste 0 856.7 0.3 72
2019-05-29 20:00:00 15.4 13 Noroeste 27 Noroeste 0 856.6 0.1 65
2019-05-29 19:00:00 16.3 18 Noroeste 27 Noroeste 0 856.5 0.1 62
2019-05-29 18:00:00 17 16 Noroeste 28 Noroeste 0 856.4 -0.1 62
2019-05-29 17:00:00 16.8 17 Noroeste 28 Noroeste 0 856.5 0.2 62
2019-05-29 16:00:00 16.5 18 Noroeste 26 Noroeste 0 856.4 0.4 62
2019-05-29 15:00:00 15.9 16 Noroeste 28 Norte 0 856.5 0.7 64
2019-05-29 14:00:00 15.1 12 Noroeste 24 Noroeste 0 856.3 0.7 63
2019-05-29 13:00:00 14.6 15 Noroeste 22 Noroeste 0 856 0.7 69
2019-05-29 12:00:00 14.4 8 Noroeste 22 Sudeste 0 855.8 0.7 58
2019-05-29 11:00:00 13.2 8 Norte 18 Noroeste 0 855.6 0.9 53
2019-05-29 10:00:00 12.9 7 Noroeste 18 Oeste 0 855.3 1 56
2019-05-29 09:00:00 9.9 7 Noroeste 21 Noroeste 0 855.1 1 65
2019-05-29 08:00:00 7.2 6 Noroeste 22 Noroeste 0 854.7 0.7 69
2019-05-29 07:00:00 5.3 6 Noroeste 26 Noroeste 0 854.3 0.3 74
2019-05-29 06:00:00 4.3 4 Norte 13 Noroeste 0 854.1 0.1 77
2019-05-29 05:00:00 3.4 4 Noroeste 15 Sudoeste 0 854 -0.1 80
2019-05-29 04:00:00 3.7 0 Calma 22 Oeste 0 854 -0.1 82
2019-05-29 03:00:00 3.6 13 Noroeste 24 Noroeste 0 854 -0.2 87
2019-05-29 02:00:00 2.2 4 Noroeste 16 Noroeste 0 854.1 0.1 88
2019-05-29 01:00:00 2.5 3 Noroeste 11 Sudeste 0 854.1 0.4 85
2019-05-29 00:00:00 2.7 8 Norte 16 Noroeste 0 854.2 0.8 89
2019-05-28 23:00:00 3.9 5 Noroeste 18 Noroeste 0 854 0.8 82
2019-05-28 22:00:00 5.2 8 Noroeste 22 Oeste 0 853.7 0.7 82
2019-05-28 21:00:00 7.5 13 Noroeste 34 Norte 0 853.4 0.6 73
2019-05-28 20:00:00 7.3 22 Norte 35 Noroeste 0 853.2 0.7 71
2019-05-28 19:00:00 7.8 20 Noroeste 36 Noroeste 0 853 0.4 79
2019-05-28 18:00:00 10 23 Noroeste 46 Oeste 0 852.8 0.4 72
2019-05-28 17:00:00 10.2 25 Noroeste 39 Noroeste 0 852.5 0.3 68
2019-05-28 16:00:00 10.4 22 Noroeste 39 Oeste 0 852.6 0.6 69
2019-05-28 15:00:00 9.2 23 Noroeste 39 Noroeste 0 852.4 0.7 72
2019-05-28 14:00:00 8.8 23 Noroeste 38 Noroeste 0 852.2 0.8 71
2019-05-28 13:00:00 8.3 21 Noroeste 35 Noroeste 0 852 0.9 75
2019-05-28 12:00:00 7.4 20 Noroeste 37 Noroeste 0 851.7 1 79
2019-05-28 11:00:00 7 15 Noroeste 26 Noroeste 0 851.4 1 80
2019-05-28 10:00:00 5.3 15 Noroeste 24 Noroeste 0 851.1 1.1 84
2019-05-28 09:00:00 2.2 15 Noroeste 24 Noroeste 0 850.7 1.3 91
2019-05-28 08:00:00 2.1 11 Noroeste 22 Noroeste 0 850.4 1 93
2019-05-28 07:00:00 1.6 13 Noroeste 27 Noroeste 0 850 0.4 95
2019-05-28 06:00:00 1.7 11 Noroeste 18 Noroeste 0 849.4 -0.3 95
2019-05-28 05:00:00 1.6 14 Noroeste 20 Noroeste 0 849.4 -0.3 93
2019-05-28 04:00:00 2.2 15 Noroeste 27 Noroeste 0 849.6 -0.5 91
2019-05-28 03:00:00 3.1 17 Noroeste 28 Noroeste 0 849.7 -0.5 95
2019-05-28 02:00:00 3.2 15 Noroeste 24 Noroeste 0 849.7 -0.4 94
2019-05-28 01:00:00 3.1 13 Noroeste 17 Noroeste 0 850.1 0.2 94
2019-05-28 00:00:00 3.7 12 Noroeste 22 Noroeste 0 850.2 0.3 92
2019-05-27 23:00:00 3.9 10 Noroeste 27 Noroeste 0 850.1 0.5 89
2019-05-27 22:00:00 5.7 18 Noroeste 29 Noroeste 0 849.9 0.1 88
2019-05-27 21:00:00 7.2 14 Noroeste 35 Noroeste 0 849.9 0 91
2019-05-27 20:00:00 8.4 16 Noroeste 34 Noroeste 0 849.6 0 85
2019-05-27 19:00:00 9.2 18 Noroeste 39 Noroeste 0 849.8 -0.2 82
2019-05-27 18:00:00 10 18 Noroeste 35 Noroeste 0 849.9 -0.4 83
2019-05-27 17:00:00 11.9 15 Noroeste 26 Noroeste 0 849.6 -0.8 77
2019-05-27 16:00:00 11.9 17 Noroeste 36 Noroeste 0 850 -0.3 74
2019-05-27 15:00:00 11 16 Noroeste 35 Noroeste 0 850.3 0.2 76
2019-05-27 14:00:00 9.7 17 Noroeste 30 Noroeste 0 850.4 0.5 86
2019-05-27 13:00:00 9 15 Noroeste 31 Noroeste 0.2 850.3 0.3 93
2019-05-27 12:00:00 8.7 17 Noroeste 28 Noroeste 0.2 850.1 0.4 95
2019-05-27 11:00:00 8.8 13 Noroeste 19 Noroeste 0.2 849.9 0.1 95
2019-05-27 10:00:00 8.3 12 Noroeste 18 Noroeste 0 850 0.1 94
2019-05-27 09:00:00 8.7 9 Noroeste 17 Noroeste 0 849.7 -0.2 93
2019-05-27 08:00:00 7.3 7 Noroeste 16 Noroeste 0 849.8 -0.5 93
2019-05-27 07:00:00 7.8 12 Noroeste 16 Noroeste 0 849.9 -0.8 86
2019-05-27 06:00:00 8 9 Noroeste 19 Noroeste 0 849.9 -1.2 82
2019-05-27 05:00:00 7.5 13 Noroeste 18 Noroeste 0 850.3 -0.9 86
2019-05-27 04:00:00 7.7 14 Noroeste 21 Oeste 0 850.7 -0.9 86
2019-05-27 03:00:00 7.6 18 Noroeste 28 Noroeste 0 851.1 -1.2 83
2019-05-27 02:00:00 7.6 17 Noroeste 21 Noroeste 0 851.2 -1.4 82
2019-05-27 01:00:00 7.8 14 Noroeste 19 Noroeste 0 851.6 -0.7 77
2019-05-27 00:00:00 6.7 4 Noroeste 14 Noroeste 0 852.3 0 88
2019-05-26 23:00:00 6.9 11 Noroeste 15 Noroeste 0 852.6 0.1 87
2019-05-26 22:00:00 8.6 11 Noroeste 24 Noroeste 0 852.3 -0.4 77
2019-05-26 21:00:00 11.7 18 Noroeste 32 Noroeste 0 852.3 -0.6 69
2019-05-26 20:00:00 13.2 21 Noroeste 37 Noroeste 0 852.5 -0.7 71
2019-05-26 19:00:00 14.7 21 Noroeste 36 Oeste 0 852.7 -0.9 59
2019-05-26 18:00:00 15.2 24 Noroeste 41 Noroeste 0 852.9 -0.6 55
2019-05-26 17:00:00 15.8 21 Noroeste 38 Noroeste 0 853.2 -0.4 54
2019-05-26 16:00:00 15.4 24 Noroeste 37 Noroeste 0 853.6 -0.3 60
2019-05-26 15:00:00 15.5 21 Noroeste 35 Noroeste 0 853.5 -0.3 63
2019-05-26 14:00:00 15.8 18 Noroeste 31 Noroeste 0 853.6 0 62
2019-05-26 13:00:00 14.7 21 Noroeste 32 Noroeste 0 853.9 0.4 62
2019-05-26 12:00:00 13.5 21 Noroeste 29 Noroeste 0 853.8 0.3 68
2019-05-26 11:00:00 14.3 15 Noroeste 26 Noroeste 0 853.6 0.2 63
2019-05-26 10:00:00 13.8 16 Noroeste 29 Noroeste 0 853.5 0.2 61
2019-05-26 09:00:00 12.2 17 Noroeste 27 Noroeste 0 853.5 0.3 58
2019-05-26 08:00:00 7.3 14 Noroeste 23 Noroeste 0 853.4 -0.1 72
2019-05-26 07:00:00 8.1 15 Noroeste 33 Oeste 0 853.3 -0.3 68
2019-05-26 06:00:00 7.6 14 Noroeste 29 Norte 0 853.2 -0.6 68
2019-05-26 05:00:00 7.8 15 Noroeste 34 Oeste 0 853.5 -0.6 65
2019-05-26 04:00:00 7.7 16 Noroeste 27 Oeste 0 853.6 -0.8 66
2019-05-26 03:00:00 8.1 17 Noroeste 28 Noroeste 0 853.8 -0.8 67
2019-05-26 02:00:00 7.7 18 Noroeste 34 Oeste 0 854.1 -0.5 74
2019-05-26 01:00:00 8.9 21 Noroeste 36 Noroeste 0 854.4 0.1 73
2019-05-26 00:00:00 6.9 19 Noroeste 35 Noroeste 0 854.6 0.4 88
2019-05-25 23:00:00 6.2 18 Noroeste 26 Noroeste 0 854.6 0.7 93
2019-05-25 22:00:00 7.3 20 Noroeste 30 Noroeste 0 854.3 0.3 94
2019-05-25 21:00:00 8.8 18 Noroeste 27 Noroeste 0 854.2 0.2 87
2019-05-25 20:00:00 10.3 20 Noroeste 31 Noroeste 0 853.9 0 81
2019-05-25 19:00:00 11.8 18 Noroeste 32 Noroeste 0 854 0.3 74
2019-05-25 18:00:00 12.5 22 Noroeste 33 Noroeste 0 854 0.1 74
2019-05-25 17:00:00 12.5 22 Noroeste 37 Noroeste 0 853.9 -0.2 71
2019-05-25 16:00:00 12.7 24 Noroeste 37 Noroeste 0 853.7 -0.4 70
2019-05-25 15:00:00 12.4 22 Noroeste 35 Noroeste 0 853.9 0.1 69
2019-05-25 14:00:00 11.6 21 Noroeste 32 Oeste 0 854.1 0.5 74
2019-05-25 13:00:00 11.1 17 Noroeste 30 Noroeste 0 854.1 1 73
2019-05-25 12:00:00 10.7 19 Noroeste 28 Noroeste 0 853.8 0.9 60
2019-05-25 11:00:00 8.7 18 Noroeste 31 Noroeste 0 853.6 0.7 74
2019-05-25 10:00:00 7.1 18 Noroeste 27 Noroeste 0 853.1 0.8 78
2019-05-25 09:00:00 5.1 14 Noroeste 22 Noroeste 0 852.9 0.4 86
2019-05-25 08:00:00 2.7 12 Norte 27 Noroeste 0 852.9 0.7 91
2019-05-25 07:00:00 2.6 14 Noroeste 24 Noroeste 0 852.3 -0.1 88
2019-05-25 06:00:00 3 9 Noroeste 30 Noroeste 0 852.5 -0.3 91
2019-05-25 05:00:00 3 15 Noroeste 32 Noroeste 0 852.2 -0.9 89
2019-05-25 04:00:00 4.4 13 Noroeste 33 Noroeste 0 852.4 -0.9 70
2019-05-25 03:00:00 3.4 10 Norte 28 Noroeste 0 852.8 -0.3 92
2019-05-25 02:00:00 4.3 10 Noroeste 24 Noroeste 0 853.1 0.1 86
2019-05-25 01:00:00 4.3 15 Noroeste 28 Oeste 0 853.3 1 93
2019-05-25 00:00:00 4.5 14 Noroeste 26 Noroeste 0 853.1 1.2 90
2019-05-24 23:00:00 4.6 14 Noroeste 32 Oeste 0 853 1.2 89
2019-05-24 22:00:00 5.4 18 Noroeste 40 Oeste 0 852.3 0.5 87
2019-05-24 21:00:00 6.6 14 Noroeste 37 Noroeste 0 851.9 0.2 87
2019-05-24 20:00:00 7.3 15 Noroeste 34 Noroeste 0 851.8 0.2 81
2019-05-24 19:00:00 7.8 12 Noroeste 35 Noroeste 0 851.8 0.2 78
2019-05-24 18:00:00 8.2 20 Noroeste 47 Oeste 0 851.7 -0.1 77
2019-05-24 17:00:00 9.3 18 Noroeste 36 Noroeste 0 851.6 -0.2 76
2019-05-24 16:00:00 8 22 Noroeste 35 Noroeste 0 851.6 -0.1 80
2019-05-24 15:00:00 7.9 19 Noroeste 35 Noroeste 0 851.8 0.6 80
2019-05-24 14:00:00 7.1 19 Noroeste 34 Oeste 0 851.8 0.7 77
2019-05-24 13:00:00 6.2 15 Noroeste 30 Noroeste 0 851.7 0.7 83
2019-05-24 12:00:00 5.7 14 Noroeste 29 Norte 0 851.2 0.4 86
2019-05-24 11:00:00 3.4 17 Noroeste 35 Noroeste 0 851.1 0.5 95
2019-05-24 10:00:00 3.9 16 Noroeste 27 Noroeste 0 851 1 92
2019-05-24 09:00:00 3.1 15 Noroeste 27 Noroeste 0 850.8 1 93
2019-05-24 08:00:00 2.8 14 Noroeste 31 Norte 0 850.6 1 90
2019-05-24 07:00:00 2.2 17 Norte 26 Noroeste 0 850 0.2 90
2019-05-24 06:00:00 2.1 15 Noroeste 31 Oeste 0 849.8 -0.5 91
2019-05-24 05:00:00 2 13 Noroeste 28 Noroeste 0 849.6 -1.1 94
2019-05-24 04:00:00 1.2 4 Norte 22 Noroeste 0 849.8 -1.2 84
2019-05-24 03:00:00 2.3 15 Noroeste 38 Noroeste 0 850.3 -0.7 91
2019-05-24 02:00:00 3.2 21 Noroeste 36 Noroeste 0 850.7 -0.2 93
2019-05-24 01:00:00 4 16 Noroeste 36 Noroeste 0 851 0.2 91
2019-05-24 00:00:00 4.8 18 Noroeste 32 Noroeste 0 851 0 95
2019-05-23 23:00:00 5.5 14 Noroeste 25 Noroeste 0 850.9 0.5 95
2019-05-23 22:00:00 6 19 Noroeste 32 Noroeste 0 850.8 0.3 95
2019-05-23 21:00:00 6.8 20 Noroeste 40 Noroeste 0 851 0.7 95
2019-05-23 20:00:00 7.9 20 Noroeste 35 Noroeste 0 850.4 0.4 94
2019-05-23 19:00:00 9.6 24 Norte 42 Noroeste 0 850.5 0.4 85
2019-05-23 18:00:00 10.2 22 Noroeste 41 Noroeste 0 850.3 0.1 82
2019-05-23 17:00:00 11.4 19 Noroeste 37 Noroeste 0 850 -0.2 79
2019-05-23 16:00:00 11.2 20 Noroeste 31 Noroeste 0 850.1 -0.4 76
2019-05-23 15:00:00 12.4 17 Noroeste 25 Noroeste 0 850.2 -0.3 74
2019-05-23 14:00:00 13.4 15 Noroeste 26 Noroeste 0 850.2 -0.4 70
2019-05-23 13:00:00 12 15 Noroeste 25 Noroeste 0 850.5 0.4 77
2019-05-23 12:00:00 11.5 13 Noroeste 22 Noroeste 0 850.5 0.7 86
2019-05-23 11:00:00 10.6 13 Noroeste 19 Noroeste 0 850.6 0.9 87
2019-05-23 10:00:00 10.4 9 Norte 18 Norte 0 850.1 0.7 87
2019-05-23 09:00:00 9.1 5 Sudeste 23 Noroeste 0 849.8 0.4 88
2019-05-23 08:00:00 7.8 8 Noroeste 13 Noroeste 0 849.7 0.2 88
2019-05-23 07:00:00 7.3 5 Noroeste 9 Noroeste 0 849.4 -0.4 83
2019-05-23 06:00:00 7.7 4 Noroeste 9 Noroeste 0 849.4 -0.9 82
2019-05-23 05:00:00 8.3 3 Sudeste 7 Sudeste 0 849.5 -1.1 88
2019-05-23 04:00:00 8.3 4 Sur 9 Sudoeste 0 849.8 -1.1 89
2019-05-23 03:00:00 8.6 5 Sur 9 Sur 0 850.3 -0.7 88
2019-05-23 02:00:00 8.5 2 Oeste 13 Norte 0 850.6 -0.3 87
2019-05-23 01:00:00 8.7 8 Noroeste 15 Noroeste 0 850.9 0.6 89
2019-05-23 00:00:00 8.7 12 Noroeste 16 Noroeste 0 851 0.9 92
2019-05-22 23:00:00 8.8 14 Noroeste 21 Noroeste 0 850.9 0.8 91
2019-05-22 22:00:00 9.5 15 Norte 21 Norte 0 850.3 0.3 91
2019-05-22 21:00:00 12.1 14 Noroeste 23 Noroeste 0 850.1 0.1 84
2019-05-22 20:00:00 13 13 Noroeste 23 Noroeste 0 850.1 0 82
2019-05-22 19:00:00 13.8 15 Noroeste 24 Oeste 0 850 -0.1 76
2019-05-22 18:00:00 14.5 13 Noroeste 24 Noroeste 0 850 -0.3 66
2019-05-22 17:00:00 15.3 15 Noroeste 27 Noroeste 0 850.1 -0.2 61
2019-05-22 16:00:00 16.2 15 Noroeste 22 Noroeste 0 850.1 -0.2 61
2019-05-22 15:00:00 14.6 14 Noroeste 24 Noroeste 0 850.3 0 60
2019-05-22 14:00:00 14.9 9 Noroeste 19 Noroeste 0 850.3 0.3 56
2019-05-22 13:00:00 14.8 9 Noroeste 17 Noroeste 0 850.3 0.4 57
2019-05-22 12:00:00 15.6 9 Este 23 Sudeste 0 850.3 0.5 58
2019-05-22 11:00:00 14 8 Sudeste 18 Sudeste 0 850 0.3 63
2019-05-22 10:00:00 11.8 11 Sudeste 15 Sudeste 0 849.9 0.4 76
2019-05-22 09:00:00 8.9 8 Sudeste 13 Sudeste 0 849.8 0.3 84
2019-05-22 08:00:00 5.8 8 Sudeste 9 Sudeste 0 849.7 0 90
2019-05-22 07:00:00 5.8 6 Sudeste 9 Sudeste 0 849.5 -0.4 88
2019-05-22 06:00:00 6.1 5 Sudeste 10 Sudeste 0 849.5 -0.5 90
2019-05-22 05:00:00 6.3 4 Sur 9 Este 0 849.7 -0.4 90
2019-05-22 04:00:00 7.1 7 Sur 16 Sur 0 849.9 -0.1 85
2019-05-22 03:00:00 6.9 9 Sur 14 Sur 0 850 -0.1 89
2019-05-22 02:00:00 5.7 7 Sudeste 11 Sur 0 850.1 0.1 88
2019-05-22 01:00:00 5.2 2 Nordeste 6 Sur 0 850 0.5 87
2019-05-22 00:00:00 5.4 0 Calma 6 Noroeste 0 850.1 0.9 84
2019-05-21 23:00:00 6.6 3 Noroeste 10 Noroeste 0 850 1.3 89
2019-05-21 22:00:00 8.3 10 Noroeste 22 Norte 0 849.5 0.8 92
2019-05-21 21:00:00 8.8 17 Noroeste 31 Noroeste 0 849.2 0.7 91
2019-05-21 20:00:00 9.2 23 Noroeste 39 Noroeste 0 848.7 0.2 88
2019-05-21 19:00:00 10.4 21 Noroeste 35 Noroeste 0 848.7 0.1 83
2019-05-21 18:00:00 12.8 21 Noroeste 33 Noroeste 0 848.5 0.1 73
2019-05-21 17:00:00 12.9 18 Noroeste 33 Noroeste 0 848.5 0.2 70
2019-05-21 16:00:00 13.2 18 Noroeste 31 Noroeste 0 848.6 0.3 71
2019-05-21 15:00:00 12.2 20 Noroeste 30 Noroeste 0 848.4 0.4 69
2019-05-21 14:00:00 11.5 18 Noroeste 26 Noroeste 0 848.3 0.5 68
2019-05-21 13:00:00 11.7 17 Noroeste 26 Noroeste 0 848.3 0.7 69
2019-05-21 12:00:00 10.3 15 Noroeste 21 Norte 0 848 0.7 67
2019-05-21 11:00:00 10.8 5 Nordeste 14 Norte 0 847.8 0.8 65
2019-05-21 10:00:00 9.1 8 Sudeste 13 Sudeste 0 847.6 0.9 74
2019-05-21 09:00:00 6.3 3 Sudeste 6 Este 0 847.3 0.7 86
2019-05-21 08:00:00 2.5 2 Norte 4 Nordeste 0 847 0.4 90
2019-05-21 07:00:00 1.9 0 Calma 10 Noroeste 0 846.7 0.3 87
2019-05-21 06:00:00 2.6 4 Noroeste 7 Noroeste 0 846.6 0.1 89
2019-05-21 05:00:00 3 0 Calma 9 Sur 0 846.6 -0.2 89
2019-05-21 04:00:00 2 3 Sudeste 9 Noroeste 0 846.4 -0.4 84
2019-05-21 03:00:00 2.9 3 Norte 13 Noroeste 0 846.5 -0.3 82
2019-05-21 02:00:00 2.9 7 Noroeste 14 Noroeste 0 846.8 0.1 82
2019-05-21 01:00:00 3.5 9 Noroeste 14 Noroeste 0 846.8 0.7 81
2019-05-21 00:00:00 4.6 10 Noroeste 17 Noroeste 0 846.8 1.1 93